Terminal Aerodrome Forecast
Issued by NWS

Current Version | Previous Version | Text Only | Print | Product List | Glossary On
Versions: 1 2 3 4 5 6 7 8 9 10 11 12 13
000
FTUS41 KPHI 010500
TAFPNE
TAF
KPNE 010520Z 0106/0206 VRB03KT P6SM SCT070 BKN200
     FM011300 20007KT P6SM SCT040 BKN200
     FM020100 VRB04KT P6SM OVC070=

USA.gov is the U.S. government's official web portal to all federal, state and local government web resources and services.